sensor_id;sensor_type;location;lat;lon;timestamp;pressure;altitude;pressure_sealevel;temperature;humidity
75063;BME280;63981;51.052;13.754;2023-11-22T00:01:28;101113.47;;;2.37;83.29
75063;BME280;63981;51.052;13.754;2023-11-22T00:03:54;101108.31;;;2.35;82.40
75063;BME280;63981;51.052;13.754;2023-11-22T00:06:20;101115.13;;;2.41;82.31
75063;BME280;63981;51.052;13.754;2023-11-22T00:08:46;101116.00;;;2.40;82.40
75063;BME280;63981;51.052;13.754;2023-11-22T00:11:13;101110.78;;;2.42;81.91
75063;BME280;63981;51.052;13.754;2023-11-22T00:13:42;101105.63;;;2.39;81.35
75063;BME280;63981;51.052;13.754;2023-11-22T00:16:08;101105.88;;;2.26;81.18
75063;BME280;63981;51.052;13.754;2023-11-22T00:18:35;101117.00;;;2.33;81.63
75063;BME280;63981;51.052;13.754;2023-11-22T00:21:03;101123.19;;;2.27;81.55
75063;BME280;63981;51.052;13.754;2023-11-22T00:23:29;101120.47;;;2.33;81.67
75063;BME280;63981;51.052;13.754;2023-11-22T00:25:56;101122.19;;;2.34;81.43
75063;BME280;63981;51.052;13.754;2023-11-22T00:28:24;101115.22;;;2.36;81.46
75063;BME280;63981;51.052;13.754;2023-11-22T00:30:51;101125.50;;;2.43;81.53
75063;BME280;63981;51.052;13.754;2023-11-22T00:33:17;101116.78;;;2.45;81.24
75063;BME280;63981;51.052;13.754;2023-11-22T00:35:45;101124.63;;;2.44;80.79
75063;BME280;63981;51.052;13.754;2023-11-22T00:38:11;101123.69;;;2.46;80.73
75063;BME280;63981;51.052;13.754;2023-11-22T00:40:38;101114.28;;;2.41;80.44
75063;BME280;63981;51.052;13.754;2023-11-22T00:43:04;101112.41;;;2.47;80.96
75063;BME280;63981;51.052;13.754;2023-11-22T00:45:30;101136.63;;;2.51;80.55
75063;BME280;63981;51.052;13.754;2023-11-22T00:47:57;101141.09;;;2.44;80.07
75063;BME280;63981;51.052;13.754;2023-11-22T00:50:23;101137.59;;;2.45;80.79
75063;BME280;63981;51.052;13.754;2023-11-22T00:52:49;101154.06;;;2.46;80.42
75063;BME280;63981;51.052;13.754;2023-11-22T00:55:15;101156.66;;;2.46;80.05
75063;BME280;63981;51.052;13.754;2023-11-22T00:57:41;101126.75;;;2.20;79.56
75063;BME280;63981;51.052;13.754;2023-11-22T01:00:08;101126.78;;;2.19;79.53
75063;BME280;63981;51.052;13.754;2023-11-22T01:02:38;101155.13;;;2.35;79.40
75063;BME280;63981;51.052;13.754;2023-11-22T01:05:08;101157.88;;;2.26;79.59
75063;BME280;63981;51.052;13.754;2023-11-22T01:07:38;101161.25;;;2.31;78.44
75063;BME280;63981;51.052;13.754;2023-11-22T01:10:04;101173.47;;;2.28;78.61
75063;BME280;63981;51.052;13.754;2023-11-22T01:12:32;101174.16;;;2.39;78.88
75063;BME280;63981;51.052;13.754;2023-11-22T01:14:58;101172.44;;;2.38;79.33
75063;BME280;63981;51.052;13.754;2023-11-22T01:17:24;101188.03;;;2.38;78.81
75063;BME280;63981;51.052;13.754;2023-11-22T01:19:50;101186.31;;;2.37;78.67
75063;BME280;63981;51.052;13.754;2023-11-22T01:22:16;101187.97;;;2.41;78.86
75063;BME280;63981;51.052;13.754;2023-11-22T01:24:43;101194.03;;;2.42;78.38
75063;BME280;63981;51.052;13.754;2023-11-22T01:27:09;101210.53;;;2.41;78.07
75063;BME280;63981;51.052;13.754;2023-11-22T01:29:35;101207.06;;;2.40;78.18
75063;BME280;63981;51.052;13.754;2023-11-22T01:32:02;101215.78;;;2.39;78.86
75063;BME280;63981;51.052;13.754;2023-11-22T01:34:28;101214.88;;;2.40;78.76
75063;BME280;63981;51.052;13.754;2023-11-22T01:36:55;101213.16;;;2.39;79.08
75063;BME280;63981;51.052;13.754;2023-11-22T01:39:21;101203.75;;;2.30;78.04
75063;BME280;63981;51.052;13.754;2023-11-22T01:41:47;101220.34;;;2.25;78.54
75063;BME280;63981;51.052;13.754;2023-11-22T01:44:16;101226.41;;;2.25;78.63
75063;BME280;63981;51.052;13.754;2023-11-22T01:46:42;101226.38;;;2.27;78.48
75063;BME280;63981;51.052;13.754;2023-11-22T01:49:10;101227.16;;;2.32;78.93
75063;BME280;63981;51.052;13.754;2023-11-22T01:51:40;101208.34;;;2.16;78.54
75063;BME280;63981;51.052;13.754;2023-11-22T01:54:07;101227.13;;;2.33;78.84
75063;BME280;63981;51.052;13.754;2023-11-22T01:56:35;101219.25;;;2.38;79.07
75063;BME280;63981;51.052;13.754;2023-11-22T01:59:05;101224.47;;;2.38;79.09
75063;BME280;63981;51.052;13.754;2023-11-22T02:01:31;101226.25;;;2.33;79.04
75063;BME280;63981;51.052;13.754;2023-11-22T02:03:57;101228.00;;;2.32;79.27
75063;BME280;63981;51.052;13.754;2023-11-22T02:06:24;101205.47;;;2.31;79.80
75063;BME280;63981;51.052;13.754;2023-11-22T02:08:50;101221.97;;;2.30;79.34
75063;BME280;63981;51.052;13.754;2023-11-22T02:11:17;101224.53;;;2.35;80.17
75063;BME280;63981;51.052;13.754;2023-11-22T02:13:48;101219.31;;;2.35;78.63
75063;BME280;63981;51.052;13.754;2023-11-22T02:16:18;101204.78;;;2.20;79.05
75063;BME280;63981;51.052;13.754;2023-11-22T02:18:46;101216.78;;;2.29;78.59
75063;BME280;63981;51.052;13.754;2023-11-22T02:21:13;101203.09;;;2.18;77.95
75063;BME280;63981;51.052;13.754;2023-11-22T02:23:40;101223.81;;;2.24;77.78
75063;BME280;63981;51.052;13.754;2023-11-22T02:26:08;101226.34;;;2.28;77.99
75063;BME280;63981;51.052;13.754;2023-11-22T02:28:34;101235.94;;;2.25;76.92
75063;BME280;63981;51.052;13.754;2023-11-22T02:31:00;101241.97;;;2.27;77.69
75063;BME280;63981;51.052;13.754;2023-11-22T02:33:26;101238.59;;;2.22;78.02
75063;BME280;63981;51.052;13.754;2023-11-22T02:35:52;101247.25;;;2.22;77.47
75063;BME280;63981;51.052;13.754;2023-11-22T02:38:18;101250.63;;;2.27;77.63
75063;BME280;63981;51.052;13.754;2023-11-22T02:40:44;101249.69;;;2.33;77.90
75063;BME280;63981;51.052;13.754;2023-11-22T02:43:11;101263.53;;;2.33;76.79
75063;BME280;63981;51.052;13.754;2023-11-22T02:45:37;101269.69;;;2.29;77.11
75063;BME280;63981;51.052;13.754;2023-11-22T02:48:04;101257.63;;;2.25;77.38
75063;BME280;63981;51.052;13.754;2023-11-22T02:50:35;101267.09;;;2.28;77.09
75063;BME280;63981;51.052;13.754;2023-11-22T02:53:03;101208.66;;;1.96;77.33
75063;BME280;63981;51.052;13.754;2023-11-22T02:55:29;101260.19;;;2.27;77.39
75063;BME280;63981;51.052;13.754;2023-11-22T02:57:56;101261.13;;;2.21;77.49
75063;BME280;63981;51.052;13.754;2023-11-22T03:00:22;101273.16;;;2.28;77.50
75063;BME280;63981;51.052;13.754;2023-11-22T03:02:50;101279.16;;;2.35;76.88
75063;BME280;63981;51.052;13.754;2023-11-22T03:05:20;101276.56;;;2.35;76.55
75063;BME280;63981;51.052;13.754;2023-11-22T03:07:46;101274.81;;;2.35;76.77
75063;BME280;63981;51.052;13.754;2023-11-22T03:10:12;101273.28;;;2.22;76.53
75063;BME280;63981;51.052;13.754;2023-11-22T03:12:39;101262.00;;;2.22;77.36
75063;BME280;63981;51.052;13.754;2023-11-22T03:15:05;101268.00;;;2.27;75.73
75063;BME280;63981;51.052;13.754;2023-11-22T03:17:31;101269.75;;;2.26;76.45
75063;BME280;63981;51.052;13.754;2023-11-22T03:19:59;101268.94;;;2.21;76.71
75063;BME280;63981;51.052;13.754;2023-11-22T03:22:27;101287.13;;;2.24;76.29
75063;BME280;63981;51.052;13.754;2023-11-22T03:24:56;101284.78;;;2.04;77.36
75063;BME280;63981;51.052;13.754;2023-11-22T03:27:22;101313.25;;;2.15;77.85
75063;BME280;63981;51.052;13.754;2023-11-22T03:29:50;101311.44;;;2.20;77.32
75063;BME280;63981;51.052;13.754;2023-11-22T03:32:16;101314.03;;;2.20;77.05
75063;BME280;63981;51.052;13.754;2023-11-22T03:34:43;101309.75;;;2.18;77.02
75063;BME280;63981;51.052;13.754;2023-11-22T03:37:09;101313.16;;;2.20;76.85
75063;BME280;63981;51.052;13.754;2023-11-22T03:39:35;101310.66;;;2.14;77.52
75063;BME280;63981;51.052;13.754;2023-11-22T03:42:01;101318.41;;;2.18;77.69
75063;BME280;63981;51.052;13.754;2023-11-22T03:44:28;101263.47;;;1.80;76.84
75063;BME280;63981;51.052;13.754;2023-11-22T03:46:54;101331.34;;;2.23;76.88
75063;BME280;63981;51.052;13.754;2023-11-22T03:49:20;101342.53;;;2.29;76.35
75063;BME280;63981;51.052;13.754;2023-11-22T03:51:47;101336.72;;;2.12;75.65
75063;BME280;63981;51.052;13.754;2023-11-22T03:54:13;101349.47;;;2.29;76.43
75063;BME280;63981;51.052;13.754;2023-11-22T03:56:39;101358.91;;;2.36;75.98
75063;BME280;63981;51.052;13.754;2023-11-22T03:59:05;101353.75;;;2.31;75.61
75063;BME280;63981;51.052;13.754;2023-11-22T04:01:31;101353.03;;;2.20;75.66
75063;BME280;63981;51.052;13.754;2023-11-22T04:03:58;101377.28;;;2.25;75.72
75063;BME280;63981;51.052;13.754;2023-11-22T04:06:24;101385.06;;;2.25;76.28
75063;BME280;63981;51.052;13.754;2023-11-22T04:08:50;101387.69;;;2.24;76.88
75063;BME280;63981;51.052;13.754;2023-11-22T04:11:16;101381.66;;;2.20;75.76
75063;BME280;63981;51.052;13.754;2023-11-22T04:13:43;101380.03;;;2.13;76.47
75063;BME280;63981;51.052;13.754;2023-11-22T04:16:09;101399.09;;;2.14;75.95
75063;BME280;63981;51.052;13.754;2023-11-22T04:18:39;101398.22;;;2.15;76.73
75063;BME280;63981;51.052;13.754;2023-11-22T04:21:05;101397.38;;;2.13;76.37
75063;BME280;63981;51.052;13.754;2023-11-22T04:23:32;101403.44;;;2.13;76.83
75063;BME280;63981;51.052;13.754;2023-11-22T04:25:59;101408.63;;;2.15;76.52
75063;BME280;63981;51.052;13.754;2023-11-22T04:28:27;101421.78;;;2.01;75.72
75063;BME280;63981;51.052;13.754;2023-11-22T04:30:53;101420.13;;;1.97;76.78
75063;BME280;63981;51.052;13.754;2023-11-22T04:33:20;101425.22;;;2.03;77.16
75063;BME280;63981;51.052;13.754;2023-11-22T04:35:49;101427.78;;;2.09;76.73
75063;BME280;63981;51.052;13.754;2023-11-22T04:38:15;101433.78;;;2.13;76.98
75063;BME280;63981;51.052;13.754;2023-11-22T04:40:41;101432.84;;;2.18;76.52
75063;BME280;63981;51.052;13.754;2023-11-22T04:43:08;101436.28;;;2.20;76.45
75063;BME280;63981;51.052;13.754;2023-11-22T04:45:34;101421.66;;;2.13;76.63
75063;BME280;63981;51.052;13.754;2023-11-22T04:48:01;101452.75;;;2.22;76.36
75063;BME280;63981;51.052;13.754;2023-11-22T04:50:27;101456.31;;;2.14;76.28
75063;BME280;63981;51.052;13.754;2023-11-22T04:52:53;101456.41;;;2.04;76.21
75063;BME280;63981;51.052;13.754;2023-11-22T04:55:19;101435.00;;;1.84;76.13
75063;BME280;63981;51.052;13.754;2023-11-22T04:57:46;101429.72;;;1.90;75.78
75063;BME280;63981;51.052;13.754;2023-11-22T05:00:12;101411.69;;;1.75;76.11
75063;BME280;63981;51.052;13.754;2023-11-22T05:02:38;101446.13;;;1.94;74.80
75063;BME280;63981;51.052;13.754;2023-11-22T05:05:06;101460.81;;;1.99;76.09
75063;BME280;63981;51.052;13.754;2023-11-22T05:07:32;101465.06;;;2.05;76.37
75063;BME280;63981;51.052;13.754;2023-11-22T05:09:58;101471.13;;;2.05;75.40
75063;BME280;63981;51.052;13.754;2023-11-22T05:12:25;101476.22;;;2.16;76.64
75063;BME280;63981;51.052;13.754;2023-11-22T05:14:51;101477.91;;;2.19;76.03
75063;BME280;63981;51.052;13.754;2023-11-22T05:17:17;101479.59;;;2.24;76.38
75063;BME280;63981;51.052;13.754;2023-11-22T05:19:43;101490.91;;;2.22;76.60
75063;BME280;63981;51.052;13.754;2023-11-22T05:22:09;101476.16;;;2.24;76.01
75063;BME280;63981;51.052;13.754;2023-11-22T05:24:35;101489.06;;;2.30;75.18
75063;BME280;63981;51.052;13.754;2023-11-22T05:27:01;101480.50;;;2.23;76.19
75063;BME280;63981;51.052;13.754;2023-11-22T05:29:28;101485.59;;;2.31;75.83
75063;BME280;63981;51.052;13.754;2023-11-22T05:31:54;101483.03;;;2.26;75.29
75063;BME280;63981;51.052;13.754;2023-11-22T05:34:20;101485.72;;;2.22;74.78
75063;BME280;63981;51.052;13.754;2023-11-22T05:36:46;101481.31;;;2.25;74.77
75063;BME280;63981;51.052;13.754;2023-11-22T05:39:12;101486.44;;;2.34;75.08
75063;BME280;63981;51.052;13.754;2023-11-22T05:41:38;101488.06;;;2.42;73.88
75063;BME280;63981;51.052;13.754;2023-11-22T05:44:04;101478.50;;;2.44;73.80
75063;BME280;63981;51.052;13.754;2023-11-22T05:46:30;101477.59;;;2.46;74.39
75063;BME280;63981;51.052;13.754;2023-11-22T05:48:56;101489.72;;;2.46;73.18
75063;BME280;63981;51.052;13.754;2023-11-22T05:51:22;101497.59;;;2.43;74.47
75063;BME280;63981;51.052;13.754;2023-11-22T05:53:48;101493.38;;;2.32;73.78
75063;BME280;63981;51.052;13.754;2023-11-22T05:56:15;101504.53;;;2.42;73.60
75063;BME280;63981;51.052;13.754;2023-11-22T05:58:42;101492.59;;;2.26;72.79
75063;BME280;63981;51.052;13.754;2023-11-22T06:01:09;101503.91;;;2.22;73.38
75063;BME280;63981;51.052;13.754;2023-11-22T06:03:36;101497.84;;;2.20;73.17
75063;BME280;63981;51.052;13.754;2023-11-22T06:06:02;101482.41;;;2.06;74.44
75063;BME280;63981;51.052;13.754;2023-11-22T06:08:29;101510.78;;;2.27;74.57
75063;BME280;63981;51.052;13.754;2023-11-22T06:10:56;101508.13;;;2.32;73.75
75063;BME280;63981;51.052;13.754;2023-11-22T06:13:24;101515.19;;;2.19;73.46
75063;BME280;63981;51.052;13.754;2023-11-22T06:15:50;101520.50;;;2.12;73.57
75063;BME280;63981;51.052;13.754;2023-11-22T06:18:16;101502.28;;;2.13;73.96
75063;BME280;63981;51.052;13.754;2023-11-22T06:20:42;101514.41;;;2.14;74.78
75063;BME280;63981;51.052;13.754;2023-11-22T06:23:08;101526.38;;;2.27;74.59
75063;BME280;63981;51.052;13.754;2023-11-22T06:25:34;101521.22;;;2.24;74.78
75063;BME280;63981;51.052;13.754;2023-11-22T06:28:03;101530.72;;;2.28;74.12
75063;BME280;63981;51.052;13.754;2023-11-22T06:30:30;101539.38;;;2.29;73.88
75063;BME280;63981;51.052;13.754;2023-11-22T06:32:57;101542.78;;;2.32;73.96
75063;BME280;63981;51.052;13.754;2023-11-22T06:35:23;101548.00;;;2.35;73.87
75063;BME280;63981;51.052;13.754;2023-11-22T06:37:49;101561.88;;;2.31;74.11
75063;BME280;63981;51.052;13.754;2023-11-22T06:40:16;101564.63;;;2.19;73.30
75063;BME280;63981;51.052;13.754;2023-11-22T06:42:43;101553.41;;;2.14;73.45
75063;BME280;63981;51.052;13.754;2023-11-22T06:45:09;101552.63;;;2.06;73.65
75063;BME280;63981;51.052;13.754;2023-11-22T06:47:36;101556.16;;;1.99;73.81
75063;BME280;63981;51.052;13.754;2023-11-22T06:50:03;101567.31;;;2.12;74.31
75063;BME280;63981;51.052;13.754;2023-11-22T06:52:35;101589.88;;;2.08;73.34
75063;BME280;63981;51.052;13.754;2023-11-22T06:55:02;101610.59;;;2.17;74.08
75063;BME280;63981;51.052;13.754;2023-11-22T06:57:28;101618.34;;;2.20;74.75
75063;BME280;63981;51.052;13.754;2023-11-22T06:59:56;101618.38;;;2.22;74.55
75063;BME280;63981;51.052;13.754;2023-11-22T07:02:22;101606.16;;;2.28;74.68
75063;BME280;63981;51.052;13.754;2023-11-22T07:04:49;101616.56;;;2.28;73.94
75063;BME280;63981;51.052;13.754;2023-11-22T07:07:15;101619.13;;;2.34;74.79
75063;BME280;63981;51.052;13.754;2023-11-22T07:09:44;101614.81;;;2.29;73.90
75063;BME280;63981;51.052;13.754;2023-11-22T07:12:10;101614.84;;;2.27;74.95
75063;BME280;63981;51.052;13.754;2023-11-22T07:14:37;101601.78;;;2.35;74.62
75063;BME280;63981;51.052;13.754;2023-11-22T07:17:03;101583.59;;;2.30;74.66
75063;BME280;63981;51.052;13.754;2023-11-22T07:19:31;101587.09;;;2.28;73.52
75063;BME280;63981;51.052;13.754;2023-11-22T07:21:57;101594.97;;;2.22;74.34
75063;BME280;63981;51.052;13.754;2023-11-22T07:24:23;101594.16;;;2.14;73.83
75063;BME280;63981;51.052;13.754;2023-11-22T07:26:49;101587.28;;;2.06;73.41
75063;BME280;63981;51.052;13.754;2023-11-22T07:29:16;101589.78;;;2.19;74.24
75063;BME280;63981;51.052;13.754;2023-11-22T07:31:42;101591.44;;;2.26;74.87
75063;BME280;63981;51.052;13.754;2023-11-22T07:34:08;101598.44;;;2.22;73.15
75063;BME280;63981;51.052;13.754;2023-11-22T07:36:38;101607.09;;;2.20;74.10
75063;BME280;63981;51.052;13.754;2023-11-22T07:39:06;101608.88;;;2.16;73.51
75063;BME280;63981;51.052;13.754;2023-11-22T07:41:32;101602.88;;;2.10;73.51
75063;BME280;63981;51.052;13.754;2023-11-22T07:44:00;101614.06;;;2.16;74.65
75063;BME280;63981;51.052;13.754;2023-11-22T07:46:26;101633.94;;;2.26;73.64
75063;BME280;63981;51.052;13.754;2023-11-22T07:48:53;101633.94;;;2.26;74.14
75063;BME280;63981;51.052;13.754;2023-11-22T07:51:20;101650.28;;;2.39;73.87
75063;BME280;63981;51.052;13.754;2023-11-22T07:53:46;101651.97;;;2.43;73.21
75063;BME280;63981;51.052;13.754;2023-11-22T07:56:12;101656.38;;;2.36;73.64
75063;BME280;63981;51.052;13.754;2023-11-22T07:58:39;101652.97;;;2.28;72.05
75063;BME280;63981;51.052;13.754;2023-11-22T08:01:05;101665.19;;;2.20;72.99
75063;BME280;63981;51.052;13.754;2023-11-22T08:03:39;101667.75;;;2.26;72.91
75063;BME280;63981;51.052;13.754;2023-11-22T08:06:10;101670.41;;;2.22;72.55
75063;BME280;63981;51.052;13.754;2023-11-22T08:08:36;101672.97;;;2.25;72.66
75063;BME280;63981;51.052;13.754;2023-11-22T08:11:06;101676.47;;;2.19;73.12
75063;BME280;63981;51.052;13.754;2023-11-22T08:13:44;101672.16;;;2.17;72.51
75063;BME280;63981;51.052;13.754;2023-11-22T08:16:11;101688.59;;;2.23;71.83
75063;BME280;63981;51.052;13.754;2023-11-22T08:18:40;101692.88;;;2.29;72.74
75063;BME280;63981;51.052;13.754;2023-11-22T08:21:08;101692.81;;;2.33;72.23
75063;BME280;63981;51.052;13.754;2023-11-22T08:23:34;101702.44;;;2.27;71.93
75063;BME280;63981;51.052;13.754;2023-11-22T08:26:01;101697.22;;;2.28;71.56
75063;BME280;63981;51.052;13.754;2023-11-22T08:28:29;101699.78;;;2.30;72.04
75063;BME280;63981;51.052;13.754;2023-11-22T08:30:55;101698.91;;;2.35;72.79
75063;BME280;63981;51.052;13.754;2023-11-22T08:33:22;101690.16;;;2.41;71.14
75063;BME280;63981;51.052;13.754;2023-11-22T08:35:48;101705.81;;;2.36;71.73
75063;BME280;63981;51.052;13.754;2023-11-22T08:38:17;101686.78;;;2.34;72.35
75063;BME280;63981;51.052;13.754;2023-11-22T08:40:45;101680.69;;;2.32;72.24
75063;BME280;63981;51.052;13.754;2023-11-22T08:43:11;101709.09;;;2.57;73.05
75063;BME280;63981;51.052;13.754;2023-11-22T08:45:37;101697.00;;;2.51;72.66
75063;BME280;63981;51.052;13.754;2023-11-22T08:48:03;101704.88;;;2.44;72.50
75063;BME280;63981;51.052;13.754;2023-11-22T08:50:29;101703.13;;;2.46;71.94
75063;BME280;63981;51.052;13.754;2023-11-22T08:52:55;101685.75;;;2.49;71.90
75063;BME280;63981;51.052;13.754;2023-11-22T08:55:23;101684.84;;;2.53;72.00
75063;BME280;63981;51.052;13.754;2023-11-22T08:57:50;101678.75;;;2.56;72.27
75063;BME280;63981;51.052;13.754;2023-11-22T09:00:19;101686.53;;;2.60;71.52
75063;BME280;63981;51.052;13.754;2023-11-22T09:02:48;101690.91;;;2.54;71.34
75063;BME280;63981;51.052;13.754;2023-11-22T09:05:15;101688.38;;;2.46;71.86
75063;BME280;63981;51.052;13.754;2023-11-22T09:07:43;101689.31;;;2.41;70.95
75063;BME280;63981;51.052;13.754;2023-11-22T09:10:10;101694.53;;;2.38;71.23
75063;BME280;63981;51.052;13.754;2023-11-22T09:12:37;101686.66;;;2.44;71.67
75063;BME280;63981;51.052;13.754;2023-11-22T09:15:07;101689.38;;;2.31;71.34
75063;BME280;63981;51.052;13.754;2023-11-22T09:17:37;101701.63;;;2.22;71.23
75063;BME280;63981;51.052;13.754;2023-11-22T09:20:17;101717.25;;;2.16;70.62
75063;BME280;63981;51.052;13.754;2023-11-22T09:22:45;101707.78;;;2.10;71.48
75063;BME280;63981;51.052;13.754;2023-11-22T09:25:17;101712.09;;;2.13;70.79
75063;BME280;63981;51.052;13.754;2023-11-22T09:27:47;101712.03;;;2.17;71.03
75063;BME280;63981;51.052;13.754;2023-11-22T09:30:15;101726.63;;;2.33;71.37
75063;BME280;63981;51.052;13.754;2023-11-22T09:33:15;101727.50;;;2.39;69.46
75063;BME280;63981;51.052;13.754;2023-11-22T09:35:44;101726.53;;;2.50;70.28
75063;BME280;63981;51.052;13.754;2023-11-22T09:38:12;101720.47;;;2.50;70.50
75063;BME280;63981;51.052;13.754;2023-11-22T09:40:45;101721.25;;;2.55;69.83
75063;BME280;63981;51.052;13.754;2023-11-22T09:43:13;101704.84;;;2.50;69.98
75063;BME280;63981;51.052;13.754;2023-11-22T09:45:47;101714.34;;;2.52;70.03
75063;BME280;63981;51.052;13.754;2023-11-22T09:48:18;101702.25;;;2.48;69.76
75063;BME280;63981;51.052;13.754;2023-11-22T09:55:56;101707.16;;;2.79;69.63
75063;BME280;63981;51.052;13.754;2023-11-22T09:58:23;101702.72;;;2.85;67.37
75063;BME280;63981;51.052;13.754;2023-11-22T10:00:50;101703.59;;;2.89;66.37
75063;BME280;63981;51.052;13.754;2023-11-22T10:03:18;101694.78;;;3.01;66.43
75063;BME280;63981;51.052;13.754;2023-11-22T10:05:46;101692.03;;;3.10;65.21
75063;BME280;63981;51.052;13.754;2023-11-22T10:08:12;101689.47;;;3.07;65.17
75063;BME280;63981;51.052;13.754;2023-11-22T10:10:38;101702.34;;;3.19;65.28
75063;BME280;63981;51.052;13.754;2023-11-22T10:13:06;101705.00;;;3.16;64.37
75063;BME280;63981;51.052;13.754;2023-11-22T10:15:32;101699.16;;;2.95;63.17
75063;BME280;63981;51.052;13.754;2023-11-22T10:17:59;101702.72;;;2.85;64.25
75063;BME280;63981;51.052;13.754;2023-11-22T10:20:46;101712.06;;;3.05;63.42
75063;BME280;63981;51.052;13.754;2023-11-22T10:23:16;101710.38;;;3.02;63.12
75063;BME280;63981;51.052;13.754;2023-11-22T10:25:48;101706.06;;;2.98;62.97
75063;BME280;63981;51.052;13.754;2023-11-22T10:28:16;101693.03;;;3.01;62.29
75063;BME280;63981;51.052;13.754;2023-11-22T10:30:48;101701.63;;;3.08;63.53
75063;BME280;63981;51.052;13.754;2023-11-22T10:33:15;101699.03;;;3.06;61.92
75063;BME280;63981;51.052;13.754;2023-11-22T10:35:46;101695.50;;;3.10;61.97
75063;BME280;63981;51.052;13.754;2023-11-22T10:38:18;101690.19;;;3.19;60.54
75063;BME280;63981;51.052;13.754;2023-11-22T10:40:45;101682.19;;;3.35;62.02
75063;BME280;63981;51.052;13.754;2023-11-22T10:43:12;101680.28;;;3.46;62.19
75063;BME280;63981;51.052;13.754;2023-11-22T10:45:38;101665.50;;;3.48;60.44
75063;BME280;63981;51.052;13.754;2023-11-22T10:48:05;101672.44;;;3.47;61.74
75063;BME280;63981;51.052;13.754;2023-11-22T10:50:34;101668.16;;;3.45;60.14
75063;BME280;63981;51.052;13.754;2023-11-22T10:53:06;101673.13;;;3.62;60.49
75063;BME280;63981;51.052;13.754;2023-11-22T10:55:33;101684.44;;;3.61;61.06
75063;BME280;63981;51.052;13.754;2023-11-22T10:58:04;101686.13;;;3.65;60.65
75063;BME280;63981;51.052;13.754;2023-11-22T11:00:33;101684.25;;;3.73;60.54
75063;BME280;63981;51.052;13.754;2023-11-22T11:03:08;101688.56;;;3.75;59.33
75063;BME280;63981;51.052;13.754;2023-11-22T11:05:41;101685.34;;;3.58;59.95
75063;BME280;63981;51.052;13.754;2023-11-22T11:08:14;101697.59;;;3.51;59.84
75063;BME280;63981;51.052;13.754;2023-11-22T11:10:44;101717.59;;;3.49;59.66
75063;BME280;63981;51.052;13.754;2023-11-22T11:13:13;101727.19;;;3.47;60.92
75063;BME280;63981;51.052;13.754;2023-11-22T11:15:41;101730.72;;;3.43;61.86
75063;BME280;63981;51.052;13.754;2023-11-22T11:18:13;101731.72;;;3.33;62.09
75063;BME280;63981;51.052;13.754;2023-11-22T11:23:19;101743.03;;;3.31;63.12
75063;BME280;63981;51.052;13.754;2023-11-22T11:25:52;101745.66;;;3.31;62.93
75063;BME280;63981;51.052;13.754;2023-11-22T11:28:20;101748.31;;;3.26;63.84
75063;BME280;63981;51.052;13.754;2023-11-22T11:30:47;101749.19;;;3.23;62.50
75063;BME280;63981;51.052;13.754;2023-11-22T11:33:27;101744.03;;;3.19;64.27
75063;BME280;63981;51.052;13.754;2023-11-22T11:35:58;101735.31;;;3.23;63.71
75063;BME280;63981;51.052;13.754;2023-11-22T11:38:35;101716.25;;;3.19;64.37
75063;BME280;63981;51.052;13.754;2023-11-22T11:41:11;101729.09;;;3.35;63.29
75063;BME280;63981;51.052;13.754;2023-11-22T11:43:45;101732.66;;;3.29;64.43
75063;BME280;63981;51.052;13.754;2023-11-22T11:46:15;101744.75;;;3.33;63.10
75063;BME280;63981;51.052;13.754;2023-11-22T11:48:51;101739.63;;;3.27;62.63
75063;BME280;63981;51.052;13.754;2023-11-22T11:51:22;101740.47;;;3.28;62.63
75063;BME280;63981;51.052;13.754;2023-11-22T11:53:48;101743.00;;;3.34;62.10
75063;BME280;63981;51.052;13.754;2023-11-22T11:56:15;101755.34;;;3.18;61.90
75063;BME280;63981;51.052;13.754;2023-11-22T11:58:42;101741.47;;;3.17;62.54
75063;BME280;63981;51.052;13.754;2023-11-22T12:01:19;101734.53;;;3.16;62.22
75063;BME280;63981;51.052;13.754;2023-11-22T12:03:48;101745.69;;;3.24;62.44
75063;BME280;63981;51.052;13.754;2023-11-22T12:06:15;101743.91;;;3.31;62.34
75063;BME280;63981;51.052;13.754;2023-11-22T12:08:42;101726.63;;;3.22;62.46
75063;BME280;63981;51.052;13.754;2023-11-22T12:11:09;101744.81;;;3.29;62.56
75063;BME280;63981;51.052;13.754;2023-11-22T12:13:37;101741.38;;;3.27;60.99
75063;BME280;63981;51.052;13.754;2023-11-22T12:16:16;101730.22;;;3.11;62.16
75063;BME280;63981;51.052;13.754;2023-11-22T12:18:51;101726.75;;;3.13;61.82
75063;BME280;63981;51.052;13.754;2023-11-22T12:21:18;101729.34;;;3.12;61.61
75063;BME280;63981;51.052;13.754;2023-11-22T12:23:46;101713.75;;;3.09;61.92
75063;BME280;63981;51.052;13.754;2023-11-22T12:26:14;101709.50;;;3.02;62.49
75063;BME280;63981;51.052;13.754;2023-11-22T12:28:41;101703.44;;;3.01;61.89
75063;BME280;63981;51.052;13.754;2023-11-22T12:31:12;101692.97;;;3.06;61.22
75063;BME280;63981;51.052;13.754;2023-11-22T12:33:40;101701.72;;;2.97;59.42
75063;BME280;63981;51.052;13.754;2023-11-22T12:36:08;101707.06;;;2.86;61.18
75063;BME280;63981;51.052;13.754;2023-11-22T12:38:36;101697.44;;;2.94;60.42
75063;BME280;63981;51.052;13.754;2023-11-22T12:41:03;101685.38;;;2.84;60.22
75063;BME280;63981;51.052;13.754;2023-11-22T12:43:29;101678.56;;;2.74;60.36
75063;BME280;63981;51.052;13.754;2023-11-22T12:48:27;101682.97;;;2.66;61.64
75063;BME280;63981;51.052;13.754;2023-11-22T12:50:56;101687.22;;;2.76;61.53
75063;BME280;63981;51.052;13.754;2023-11-22T12:53:24;101674.94;;;2.86;61.28
75063;BME280;63981;51.052;13.754;2023-11-22T12:55:51;101672.31;;;2.89;nan
75063;BME280;63981;51.052;13.754;2023-11-22T12:58:19;101675.81;;;2.88;61.17
75063;BME280;63981;51.052;13.754;2023-11-22T13:00:47;101673.19;;;2.89;61.00
75063;BME280;63981;51.052;13.754;2023-11-22T13:03:13;101668.88;;;2.85;60.20